Terminal Aerodrome Forecast
Issued by NWS Jackson, MS

Home | Current Version | Previous Version | Text Only | Print | Product List | Glossary On
Versions: 1 2 3 4 5 6 7 8 9 10 11 12 13 14 15 16 17 18 19 20
000
FTUS44 KJAN 311100
TAFHBG
TAF
KHBG 311126Z 3112/0112 00000KT P6SM SCT080
     FM311600 32007KT P6SM SKC
     FM311900 33015G25KT P6SM SCT040
     FM010200 34009KT P6SM SKC=

USA.gov is the U.S. government's official web portal to all federal, state and local government web resources and services.